Time;durP1;ratioP1;P1;durP2;ratioP2;P2;SDS_P1;SDS_P2;PMS_P1;PMS_P2;Temp;Humidity;BMP_temperature;BMP_pressure;BME280_temperature;BME280_humidity;BME280_pressure;Samples;Min_cycle;Max_cycle;Signal;HPM_P1;HPM_P2
2023/08/06 00:01:11;;;;;;;5.15;2.20;;;;;;;17.93;nan;99341.75;5016883;28;20458;-69
2023/08/06 00:03:37;;;;;;;5.10;2.20;;;;;;;17.95;nan;99328.13;5015128;28;20026;-69
2023/08/06 00:06:04;;;;;;;3.78;2.00;;;;;;;17.96;nan;99325.19;5019885;28;20408;-69
2023/08/06 00:08:29;;;;;;;3.63;2.38;;;;;;;17.93;nan;99317.78;5017172;28;20026;-69
2023/08/06 00:10:55;;;;;;;4.75;2.28;;;;;;;17.90;nan;99306.94;5019108;28;20034;-69
2023/08/06 00:13:20;;;;;;;5.25;2.28;;;;;;;17.84;nan;99316.94;5016595;28;20511;-69
2023/08/06 00:15:45;;;;;;;4.18;2.15;;;;;;;17.89;nan;99308.03;5021008;28;20034;-69
2023/08/06 00:18:11;;;;;;;4.70;2.28;;;;;;;17.82;nan;99311.09;5015838;28;20033;-69
2023/08/06 00:20:40;;;;;;;5.35;2.38;;;;;;;17.77;nan;99311.19;5017465;28;20487;-68
2023/08/06 00:23:05;;;;;;;3.13;1.95;;;;;;;17.77;nan;99293.34;5016162;28;20704;-68
2023/08/06 00:25:30;;;;;;;4.28;2.08;;;;;;;17.70;nan;99262.88;5019441;28;20064;-68
2023/08/06 00:27:56;;;;;;;4.25;2.42;;;;;;;17.60;nan;99250.59;5022921;28;20447;-69
2023/08/06 00:30:21;;;;;;;3.90;2.00;;;;;;;17.51;nan;99261.16;5014913;28;20059;-69
2023/08/06 00:32:47;;;;;;;3.75;2.00;;;;;;;17.63;nan;99295.25;5018203;28;20133;-69
2023/08/06 00:35:13;;;;;;;3.50;1.88;;;;;;;17.68;nan;99307.66;5015225;28;20030;-69
2023/08/06 00:37:39;;;;;;;5.45;2.03;;;;;;;17.69;nan;99306.56;5015711;28;20026;-69
2023/08/06 00:40:05;;;;;;;3.22;1.90;;;;;;;17.57;nan;99302.53;5017332;28;20570;-70
2023/08/06 00:42:31;;;;;;;18.20;2.03;;;;;;;17.48;nan;99291.03;5017828;28;20079;-69
2023/08/06 00:44:56;;;;;;;3.28;2.00;;;;;;;17.59;nan;99288.94;5019007;28;20053;-69
2023/08/06 00:47:22;;;;;;;3.85;2.03;;;;;;;17.42;nan;99250.41;5018837;28;20037;-70
2023/08/06 00:49:47;;;;;;;2.75;1.80;;;;;;;17.56;nan;99276.22;5016963;28;20030;-69
2023/08/06 00:52:13;;;;;;;3.03;1.67;;;;;;;17.45;nan;99259.66;5018058;28;20357;-69
2023/08/06 00:54:39;;;;;;;3.70;1.70;;;;;;;17.48;nan;99256.44;5014367;28;20120;-66
2023/08/06 00:57:06;;;;;;;3.58;1.90;;;;;;;17.43;nan;99243.22;5018011;28;20109;-69
2023/08/06 00:59:32;;;;;;;2.40;1.75;;;;;;;17.49;nan;99254.53;5019194;28;20018;-69
2023/08/06 01:01:58;;;;;;;2.78;1.83;;;;;;;17.36;nan;99217.00;5018571;28;20032;-69
2023/08/06 01:04:24;;;;;;;3.35;1.92;;;;;;;17.37;nan;99199.16;5016954;28;20061;-69
2023/08/06 01:07:02;;;;;;;3.30;1.65;;;;;;;17.34;nan;99176.59;5023913;28;20581;-70
2023/08/06 01:09:55;;;;;;;2.42;1.70;;;;;;;17.40;nan;99182.59;5016196;28;20029;-68
2023/08/06 01:12:30;;;;;;;3.53;1.60;;;;;;;17.38;nan;99174.13;5016107;28;20038;-66
2023/08/06 01:15:07;;;;;;;3.95;1.55;;;;;;;17.35;nan;99164.88;5014918;28;20034;-68
2023/08/06 01:17:34;;;;;;;3.70;1.90;;;;;;;17.42;nan;99156.47;5017698;28;20104;-68
2023/08/06 01:19:59;;;;;;;2.63;1.83;;;;;;;17.36;nan;99155.03;5015858;28;20052;-68
2023/08/06 01:22:24;;;;;;;3.63;1.60;;;;;;;17.37;nan;99145.94;5018038;28;20053;-69
2023/08/06 01:24:51;;;;;;;4.40;1.90;;;;;;;17.39;nan;99152.53;5020024;28;20029;-69
2023/08/06 01:27:49;;;;;;;3.47;1.92;;;;;;;17.28;nan;99153.84;5017294;28;20039;-68
2023/08/06 01:30:29;;;;;;;4.80;2.20;;;;;;;17.27;nan;99140.88;5029728;28;20037;-69
2023/08/06 01:33:00;;;;;;;3.30;1.73;;;;;;;17.21;nan;99146.31;5017368;28;20022;-68
2023/08/06 01:35:27;;;;;;;2.35;1.80;;;;;;;17.18;nan;99170.03;5016749;28;20075;-68
2023/08/06 01:37:53;;;;;;;4.20;2.10;;;;;;;17.29;nan;99181.25;5016036;28;20030;-68
2023/08/06 01:40:18;;;;;;;4.63;2.20;;;;;;;17.29;nan;99159.97;5018267;28;20040;-68
2023/08/06 01:42:43;;;;;;;4.35;1.73;;;;;;;17.17;nan;99140.00;5013902;28;20036;-68
2023/08/06 01:45:10;;;;;;;2.60;1.85;;;;;;;17.32;nan;99156.72;5014809;28;20400;-68
2023/08/06 01:47:35;;;;;;;4.75;1.90;;;;;;;17.24;nan;99131.63;5020365;28;20121;-68
2023/08/06 01:50:01;;;;;;;3.60;1.83;;;;;;;17.37;nan;99145.94;5016804;28;20591;-68
2023/08/06 01:52:27;;;;;;;3.38;1.70;;;;;;;17.45;nan;99174.50;5016250;28;20113;-68
2023/08/06 01:54:52;;;;;;;2.55;1.60;;;;;;;17.44;nan;99202.22;5012759;28;20029;-69
2023/08/06 01:57:17;;;;;;;1.65;1.25;;;;;;;17.44;nan;99231.47;5015555;28;20044;-69
2023/08/06 01:59:43;;;;;;;2.10;1.70;;;;;;;17.46;nan;99231.19;5015783;28;20124;-68
2023/08/06 02:02:08;;;;;;;3.60;1.40;;;;;;;17.47;nan;99208.81;5015539;28;20474;-69
2023/08/06 02:04:34;;;;;;;2.92;1.67;;;;;;;17.49;nan;99194.09;5018280;28;20048;-69
2023/08/06 02:06:59;;;;;;;2.67;2.00;;;;;;;17.53;nan;99202.28;5016416;28;20029;-69
2023/08/06 02:09:24;;;;;;;5.03;1.80;;;;;;;17.55;nan;99216.88;5013577;28;20163;-68
2023/08/06 02:11:50;;;;;;;5.78;1.50;;;;;;;17.51;nan;99202.59;5013774;28;20120;-71
2023/08/06 02:14:15;;;;;;;3.72;1.70;;;;;;;17.58;nan;99205.63;5014010;28;20021;-65
2023/08/06 02:16:41;;;;;;;2.08;1.42;;;;;;;17.51;nan;99193.81;5018712;28;20021;-65
2023/08/06 02:19:06;;;;;;;2.60;1.73;;;;;;;17.54;nan;99203.84;5017152;28;20029;-65
2023/08/06 02:21:31;;;;;;;1.83;1.40;;;;;;;17.60;nan;99208.78;5020158;28;20057;-65
2023/08/06 02:23:57;;;;;;;3.33;1.77;;;;;;;17.59;nan;99207.19;5012562;28;20028;-64
2023/08/06 02:26:23;;;;;;;2.22;1.67;;;;;;;17.61;nan;99202.34;5011814;28;20033;-65
2023/08/06 02:28:48;;;;;;;5.15;1.67;;;;;;;17.40;nan;99178.06;5015533;28;20105;-70
2023/08/06 02:31:13;;;;;;;3.08;1.40;;;;;;;17.61;nan;99206.91;5016416;28;20060;-65
2023/08/06 02:33:39;;;;;;;1.95;1.75;;;;;;;17.62;nan;99201.28;5015860;28;20021;-69
2023/08/06 02:36:05;;;;;;;2.00;1.60;;;;;;;17.59;nan;99188.56;5031163;28;20017;-71
2023/08/06 02:38:31;;;;;;;2.55;1.80;;;;;;;17.65;nan;99202.56;5015977;28;20133;-70
2023/08/06 02:40:57;;;;;;;2.47;1.70;;;;;;;17.61;nan;99204.22;5015599;28;20569;-70
2023/08/06 02:43:22;;;;;;;2.50;1.52;;;;;;;17.60;nan;99206.13;5015050;28;20025;-71
2023/08/06 02:45:47;;;;;;;3.40;1.40;;;;;;;17.62;nan;99211.94;5017376;28;20124;-71
2023/08/06 02:48:13;;;;;;;1.92;1.33;;;;;;;17.61;nan;99207.69;5015798;28;20029;-70
2023/08/06 02:50:41;;;;;;;1.90;1.45;;;;;;;17.62;nan;99206.59;5015902;28;20030;-71
2023/08/06 02:53:08;;;;;;;3.63;1.50;;;;;;;17.68;nan;99220.56;5016233;28;20164;-65
2023/08/06 02:55:34;;;;;;;1.60;1.30;;;;;;;17.67;nan;99224.34;5016285;28;20033;-69
2023/08/06 02:58:01;;;;;;;2.60;1.52;;;;;;;17.64;nan;99216.94;5014271;28;20532;-69
2023/08/06 03:00:27;;;;;;;4.55;1.52;;;;;;;17.67;nan;99220.88;5012880;28;20034;-69
2023/08/06 03:02:53;;;;;;;1.70;1.30;;;;;;;17.62;nan;99214.59;5015801;28;20574;-71
2023/08/06 03:05:18;;;;;;;3.22;1.70;;;;;;;17.63;nan;99218.81;5018653;28;20077;-71
2023/08/06 03:07:43;;;;;;;3.42;1.42;;;;;;;17.67;nan;99215.53;5017553;28;20499;-65
2023/08/06 03:10:09;;;;;;;3.40;1.60;;;;;;;17.68;nan;99219.78;5016639;28;20029;-65
2023/08/06 03:12:34;;;;;;;4.63;1.70;;;;;;;17.70;nan;99222.94;5016342;28;20095;-70
2023/08/06 03:15:00;;;;;;;3.30;1.80;;;;;;;17.68;nan;99212.59;5014289;28;20048;-71
2023/08/06 03:17:25;;;;;;;2.22;1.73;;;;;;;17.72;nan;99204.78;5011477;28;20057;-65
2023/08/06 03:19:51;;;;;;;4.25;1.80;;;;;;;17.74;nan;99197.28;5013073;28;20491;-70
2023/08/06 03:22:16;;;;;;;3.75;2.15;;;;;;;17.71;nan;99187.25;5017229;28;20135;-70
2023/08/06 03:24:41;;;;;;;3.25;1.83;;;;;;;17.78;nan;99190.25;5019577;28;20048;-65
2023/08/06 03:27:07;;;;;;;1.95;1.55;;;;;;;17.76;nan;99185.22;5019685;28;20024;-65
2023/08/06 03:29:32;;;;;;;3.72;1.80;;;;;;;17.75;nan;99174.91;5018639;28;20040;-65
2023/08/06 03:31:57;;;;;;;2.25;1.67;;;;;;;17.79;nan;99174.00;5019862;28;20037;-65
2023/08/06 03:34:23;;;;;;;4.35;1.67;;;;;;;17.84;nan;99175.78;5030754;28;20026;-71
2023/08/06 03:36:48;;;;;;;3.33;1.63;;;;;;;17.89;nan;99177.53;5031462;28;20024;-65
2023/08/06 03:39:13;;;;;;;2.65;1.63;;;;;;;17.90;nan;99179.09;5022457;28;20088;-65
2023/08/06 03:41:39;;;;;;;2.55;1.55;;;;;;;17.94;nan;99162.22;5032000;28;20029;-70
2023/08/06 03:44:05;;;;;;;1.88;1.50;;;;;;;17.92;nan;99158.28;5036439;28;20053;-68
2023/08/06 03:46:33;;;;;;;2.28;1.60;;;;;;;17.90;nan;99160.47;5027113;28;20022;-65
2023/08/06 03:49:00;;;;;;;2.00;1.80;;;;;;;17.92;nan;99169.72;5028606;28;20104;-65
2023/08/06 03:51:25;;;;;;;3.38;1.98;;;;;;;17.93;nan;99181.94;5024169;28;20038;-66
2023/08/06 03:53:50;;;;;;;4.88;2.30;;;;;;;17.92;nan;99177.72;5019554;28;20017;-66
2023/08/06 03:56:16;;;;;;;3.85;2.20;;;;;;;17.84;nan;99165.91;5023849;28;20051;-65
2023/08/06 03:58:41;;;;;;;4.90;2.20;;;;;;;17.89;nan;99174.88;5024094;28;20079;-66
2023/08/06 04:01:07;;;;;;;4.40;2.42;;;;;;;17.90;nan;99189.75;5023000;28;20025;-66
2023/08/06 04:03:32;;;;;;;6.45;2.70;;;;;;;17.88;nan;99187.38;5021205;28;20179;-65
2023/08/06 04:05:57;;;;;;;4.00;2.28;;;;;;;17.81;nan;99171.03;5002949;28;20057;-71
2023/08/06 04:08:23;;;;;;;3.28;2.45;;;;;;;17.88;nan;99183.94;5018921;28;20039;-66
2023/08/06 04:10:52;;;;;;;3.35;2.10;;;;;;;17.89;nan;99180.22;5019568;28;20026;-71
2023/08/06 04:13:18;;;;;;;4.65;2.58;;;;;;;17.85;nan;99180.78;5016570;28;20030;-71
2023/08/06 04:15:43;;;;;;;3.53;2.20;;;;;;;17.91;nan;99183.31;5019686;28;20534;-65
2023/08/06 04:18:08;;;;;;;3.20;2.45;;;;;;;17.88;nan;99170.63;5018471;28;20025;-65
2023/08/06 04:20:34;;;;;;;4.18;2.50;;;;;;;17.91;nan;99164.69;5021939;28;20030;-65
2023/08/06 04:23:06;;;;;;;3.30;2.28;;;;;;;17.92;nan;99158.28;5019191;28;20054;-66
2023/08/06 04:25:32;;;;;;;5.70;2.50;;;;;;;17.88;nan;99154.66;5017493;28;20061;-65
2023/08/06 04:27:58;;;;;;;5.88;2.80;;;;;;;17.91;nan;99157.50;5020210;28;20030;-65
2023/08/06 04:30:23;;;;;;;4.25;2.60;;;;;;;17.94;nan;99158.78;5019086;28;21285;-66
2023/08/06 04:32:50;;;;;;;7.68;3.13;;;;;;;17.82;nan;99132.69;5017272;28;20014;-66
2023/08/06 04:35:16;;;;;;;4.15;2.83;;;;;;;17.95;nan;99161.13;5019653;28;20021;-65
2023/08/06 04:37:41;;;;;;;4.85;2.80;;;;;;;17.93;nan;99163.28;5018569;28;20492;-66
2023/08/06 04:40:07;;;;;;;6.43;3.17;;;;;;;17.77;nan;99128.25;5014957;28;20039;-66
2023/08/06 04:42:32;;;;;;;6.72;3.45;;;;;;;17.96;nan;99154.72;5020058;28;20032;-65
2023/08/06 04:44:58;;;;;;;5.97;3.38;;;;;;;17.99;nan;99158.66;5021443;28;20040;-65
2023/08/06 04:47:23;;;;;;;5.28;2.80;;;;;;;17.96;nan;99159.25;5048275;28;20030;-65
2023/08/06 04:49:48;;;;;;;3.95;2.88;;;;;;;17.95;nan;99171.78;5016362;28;20375;-66
2023/08/06 04:52:14;;;;;;;6.13;3.67;;;;;;;17.92;nan;99167.06;5016514;28;20462;-71
2023/08/06 04:54:39;;;;;;;6.45;3.47;;;;;;;17.95;nan;99190.41;5019544;28;20475;-65
2023/08/06 04:57:05;;;;;;;5.00;3.10;;;;;;;17.95;nan;99198.41;5014433;28;20034;-70
2023/08/06 04:59:30;;;;;;;5.25;3.47;;;;;;;17.94;nan;99194.19;5015241;28;20038;-65
2023/08/06 05:01:55;;;;;;;3.90;3.15;;;;;;;17.94;nan;99194.19;5017862;28;20084;-65
2023/08/06 05:04:21;;;;;;;6.00;3.10;;;;;;;17.95;nan;99203.72;5015043;28;20066;-68
2023/08/06 05:06:46;;;;;;;4.20;2.97;;;;;;;17.94;nan;99198.72;5018508;28;20048;-68
2023/08/06 05:09:11;;;;;;;3.33;2.83;;;;;;;17.87;nan;99185.81;5016979;28;20029;-68
2023/08/06 05:11:37;;;;;;;3.88;2.40;;;;;;;17.94;nan;99207.50;5021491;28;20034;-68
2023/08/06 05:14:02;;;;;;;3.70;2.60;;;;;;;17.89;nan;99190.84;5017238;28;20021;-69
2023/08/06 05:16:28;;;;;;;5.05;2.80;;;;;;;17.91;nan;99191.31;5018055;28;20037;-68
2023/08/06 05:18:53;;;;;;;5.75;3.30;;;;;;;17.93;nan;99195.25;5017551;28;20436;-70
2023/08/06 05:21:18;;;;;;;5.10;2.80;;;;;;;17.97;nan;99190.91;5016513;28;20399;-67
2023/08/06 05:23:44;;;;;;;3.58;2.70;;;;;;;17.92;nan;99180.38;5018358;28;20415;-70
2023/08/06 05:26:09;;;;;;;4.05;3.10;;;;;;;17.97;nan;99185.56;5016062;28;20030;-69
2023/08/06 05:28:35;;;;;;;3.60;3.17;;;;;;;17.97;nan;99193.56;5017929;28;20028;-70
2023/08/06 05:31:06;;;;;;;5.25;3.15;;;;;;;17.95;nan;99190.41;5019716;28;20025;-70
2023/08/06 05:33:31;;;;;;;4.47;3.38;;;;;;;17.96;nan;99200.00;5016382;28;20044;-70
2023/08/06 05:35:57;;;;;;;5.40;3.40;;;;;;;17.93;nan;99195.25;5016962;28;20634;-71
2023/08/06 05:38:23;;;;;;;3.60;2.95;;;;;;;17.96;nan;99193.88;5017419;28;20040;-71
2023/08/06 05:40:48;;;;;;;4.30;3.10;;;;;;;17.92;nan;99199.00;5015382;28;20105;-71
2023/08/06 05:43:14;;;;;;;3.97;2.75;;;;;;;17.93;nan;99194.47;5015296;28;20038;-71
2023/08/06 05:45:43;;;;;;;3.75;3.13;;;;;;;17.97;nan;99206.88;5015378;28;20029;-71
2023/08/06 05:48:09;;;;;;;;;;;;;;;18.04;nan;99206.47;5018262;28;20017;-71
2023/08/06 05:50:34;;;;;;;5.03;2.90;;;;;;;18.03;nan;99216.34;5018467;28;19963;-71
2023/08/06 05:52:59;;;;;;;7.85;3.53;;;;;;;18.03;nan;99210.22;5015232;28;20275;-69
2023/08/06 05:55:25;;;;;;;3.10;2.78;;;;;;;18.07;nan;99213.84;5016846;28;20076;-69
2023/08/06 05:57:52;;;;;;;5.25;3.20;;;;;;;18.09;nan;99219.66;5016703;28;20057;-69
2023/08/06 06:00:18;;;;;;;6.07;4.40;;;;;;;18.10;nan;99209.78;5018511;28;20144;-67
2023/08/06 06:02:43;;;;;;;4.70;3.40;;;;;;;18.15;nan;99220.31;5015996;28;20044;-69
2023/08/06 06:05:09;;;;;;;6.20;3.33;;;;;;;18.12;nan;99224.38;5017368;28;20416;-69
2023/08/06 06:07:34;;;;;;;6.32;2.90;;;;;;;18.10;nan;99220.44;5016861;28;20025;-69
2023/08/06 06:10:00;;;;;;;6.50;3.10;;;;;;;18.11;nan;99228.13;5013780;28;20057;-69
2023/08/06 06:12:26;;;;;;;4.80;2.97;;;;;;;18.10;nan;99223.91;5016093;28;20123;-69
2023/08/06 06:14:51;;;;;;;6.72;2.55;;;;;;;18.06;nan;99220.28;5020350;28;20029;-74
2023/08/06 06:17:16;;;;;;;4.15;2.75;;;;;;;18.10;nan;99220.44;5018262;28;20079;-68
2023/08/06 06:19:42;;;;;;;3.92;3.00;;;;;;;18.07;nan;99211.19;5014739;28;20060;-69
2023/08/06 06:22:07;;;;;;;4.25;2.90;;;;;;;18.07;nan;99219.94;5016436;28;20393;-70
2023/08/06 06:24:33;;;;;;;4.85;2.90;;;;;;;17.96;nan;99200.00;5013982;28;20383;-70
2023/08/06 06:26:59;;;;;;;3.72;2.80;;;;;;;17.98;nan;99219.13;5014509;28;20076;-70
2023/08/06 06:29:24;;;;;;;3.72;2.97;;;;;;;18.04;nan;99243.75;5012795;28;20034;-70
2023/08/06 06:31:49;;;;;;;5.22;3.28;;;;;;;17.95;nan;99235.69;5017371;28;20429;-70
2023/08/06 06:34:15;;;;;;;4.45;3.15;;;;;;;18.00;nan;99246.22;5015638;28;20061;-70
2023/08/06 06:36:40;;;;;;;3.83;3.28;;;;;;;17.97;nan;99243.38;5016443;28;20451;-70
2023/08/06 06:39:06;;;;;;;3.85;2.88;;;;;;;17.97;nan;99243.38;5014966;28;20026;-70
2023/08/06 06:41:32;;;;;;;6.28;3.33;;;;;;;17.91;nan;99237.41;5017805;28;20029;-71
2023/08/06 06:43:58;;;;;;;4.65;3.10;;;;;;;17.88;nan;99240.66;5013969;28;20026;-70
2023/08/06 06:46:23;;;;;;;4.38;3.00;;;;;;;17.90;nan;99248.34;5010351;28;20091;-69
2023/08/06 06:48:49;;;;;;;2.97;2.60;;;;;;;17.97;nan;99257.50;5012680;28;20026;-70
2023/08/06 06:51:14;;;;;;;4.70;2.95;;;;;;;17.92;nan;99256.81;5015438;28;20112;-70
2023/08/06 06:53:40;;;;;;;3.65;2.63;;;;;;;17.93;nan;99250.41;5023866;28;20016;-70
2023/08/06 06:56:06;;;;;;;3.40;2.63;;;;;;;17.94;nan;99252.78;5015460;28;20415;-70
2023/08/06 06:58:32;;;;;;;3.13;2.72;;;;;;;17.99;nan;99254.53;5020365;28;20026;-68
2023/08/06 07:00:58;;;;;;;4.45;2.97;;;;;;;17.89;nan;99230.81;5020760;28;20041;-68
2023/08/06 07:03:23;;;;;;;3.60;2.55;;;;;;;18.06;nan;99257.56;5020629;28;20033;-69
2023/08/06 07:05:50;;;;;;;5.63;2.83;;;;;;;18.05;nan;99251.47;5018529;28;20092;-68
2023/08/06 07:08:15;;;;;;;4.50;3.15;;;;;;;18.10;nan;99258.53;5022569;28;20025;-69
2023/08/06 07:10:42;;;;;;;6.68;3.40;;;;;;;18.11;nan;99264.66;5017841;28;20533;-69
2023/08/06 07:13:08;;;;;;;6.07;3.53;;;;;;;18.10;nan;99260.41;5019165;28;20057;-69
2023/08/06 07:15:33;;;;;;;7.68;3.40;;;;;;;18.11;nan;99260.09;5019499;28;20534;-70
2023/08/06 07:17:58;;;;;;;4.80;3.58;;;;;;;18.14;nan;99264.81;5016675;28;20033;-69
2023/08/06 07:20:24;;;;;;;5.95;3.00;;;;;;;18.14;nan;99258.72;5020064;28;20084;-70
2023/08/06 07:22:50;;;;;;;5.10;3.30;;;;;;;18.16;nan;99259.19;5024624;28;20042;-69
2023/08/06 07:25:16;;;;;;;5.55;3.85;;;;;;;18.20;nan;99257.50;5001655;28;20025;-68
2023/08/06 07:27:41;;;;;;;4.90;3.88;;;;;;;18.20;nan;99252.19;5020288;28;20403;-69
2023/08/06 07:30:07;;;;;;;5.25;3.92;;;;;;;18.30;nan;99257.25;5023389;28;20033;-69
2023/08/06 07:32:33;;;;;;;5.32;4.05;;;;;;;18.33;nan;99259.31;5016798;28;20518;-66
2023/08/06 07:35:00;;;;;;;5.95;3.90;;;;;;;18.40;nan;99267.66;5020603;28;20108;-70
2023/08/06 07:37:25;;;;;;;7.68;4.28;;;;;;;18.44;nan;99265.19;5018201;28;20044;-71
2023/08/06 07:39:51;;;;;;;6.25;4.07;;;;;;;18.46;nan;99255.78;5020078;28;20029;-71
2023/08/06 07:42:16;;;;;;;5.43;4.10;;;;;;;18.60;nan;99261.03;5018560;28;20091;-67
2023/08/06 07:44:41;;;;;;;5.00;4.20;;;;;;;18.60;nan;99266.34;5016905;28;20037;-70
2023/08/06 07:47:07;;;;;;;6.32;4.60;;;;;;;18.67;nan;99260.59;5017376;28;20033;-70
2023/08/06 07:49:32;;;;;;;6.55;4.82;;;;;;;18.73;nan;99264.72;5021880;28;20112;-73
2023/08/06 07:51:58;;;;;;;6.32;4.80;;;;;;;18.77;nan;99255.03;5018049;28;20037;-73
2023/08/06 07:54:24;;;;;;;5.95;4.45;;;;;;;18.76;nan;99253.44;5019503;28;20109;-68
2023/08/06 07:56:49;;;;;;;6.90;4.60;;;;;;;18.81;nan;99250.66;5019182;28;20711;-73
2023/08/06 07:59:15;;;;;;;7.60;4.93;;;;;;;18.83;nan;99247.69;5019978;28;20021;-73
2023/08/06 08:01:40;;;;;;;6.82;5.13;;;;;;;18.85;nan;99246.28;5019830;28;20021;-73
2023/08/06 08:04:05;;;;;;;6.28;4.90;;;;;;;18.91;nan;99255.72;5017855;28;20034;-67
2023/08/06 08:06:31;;;;;;;8.27;5.38;;;;;;;18.97;nan;99256.38;5017488;28;20021;-68
2023/08/06 08:08:56;;;;;;;7.50;4.93;;;;;;;19.00;nan;99261.06;5019437;28;20435;-73
2023/08/06 08:11:22;;;;;;;6.85;5.50;;;;;;;19.02;nan;99261.56;5018507;28;20492;-68
2023/08/06 08:13:47;;;;;;;6.60;5.55;;;;;;;19.07;nan;99265.97;5022209;28;20079;-69
2023/08/06 08:16:13;;;;;;;8.43;6.50;;;;;;;18.91;nan;99233.56;5025291;28;20028;-74
2023/08/06 08:18:38;;;;;;;8.73;6.20;;;;;;;19.10;nan;99250.13;5017021;28;20150;-73
2023/08/06 08:21:03;;;;;;;11.23;6.75;;;;;;;19.19;nan;99249.38;5022705;28;20082;-69
2023/08/06 08:23:31;;;;;;;11.63;6.88;;;;;;;19.22;nan;99254.84;5022586;28;20106;-73
2023/08/06 08:25:56;;;;;;;8.90;6.97;;;;;;;19.27;nan;99259.28;5018738;28;20113;-68
2023/08/06 08:28:21;;;;;;;10.65;8.00;;;;;;;19.26;nan;99260.38;5017578;28;20081;-72
2023/08/06 08:30:47;;;;;;;11.43;8.35;;;;;;;19.34;nan;99263.06;5021630;28;20392;-73
2023/08/06 08:33:13;;;;;;;11.00;7.95;;;;;;;19.37;nan;99267.00;5022234;28;20104;-68
2023/08/06 08:35:38;;;;;;;10.68;8.48;;;;;;;19.40;nan;99278.94;5018332;28;20030;-68
2023/08/06 08:38:04;;;;;;;10.55;8.20;;;;;;;19.36;nan;99267.31;5019364;28;20033;-67
2023/08/06 08:40:33;;;;;;;11.05;7.85;;;;;;;19.33;nan;99260.72;5018152;28;20472;-67
2023/08/06 08:43:02;;;;;;;9.75;7.50;;;;;;;19.38;nan;99268.56;5017429;28;20112;-72
2023/08/06 08:45:29;;;;;;;10.65;7.78;;;;;;;19.38;nan;99257.88;5017324;28;20570;-68
2023/08/06 08:47:55;;;;;;;10.68;8.23;;;;;;;19.44;nan;99256.66;5017560;28;20047;-67
2023/08/06 08:50:21;;;;;;;11.00;8.95;;;;;;;19.50;nan;99265.28;5025168;28;20480;-68
2023/08/06 08:52:48;;;;;;;11.13;8.90;;;;;;;19.45;nan;99250.22;5019508;28;20128;-71
2023/08/06 08:55:15;;;;;;;15.02;9.65;;;;;;;19.54;nan;99260.91;5021133;28;20075;-72
2023/08/06 08:57:40;;;;;;;11.95;9.40;;;;;;;19.60;nan;99281.00;5018536;28;20514;-73
2023/08/06 09:00:06;;;;;;;11.73;9.45;;;;;;;19.60;nan;99269.53;5019763;28;20034;-72
2023/08/06 09:02:33;;;;;;;14.43;10.02;;;;;;;19.63;nan;99261.69;5016964;28;20040;-72
2023/08/06 09:05:02;;;;;;;13.80;10.52;;;;;;;19.74;nan;99265.66;5017993;28;20064;-71
2023/08/06 09:07:31;;;;;;;12.75;9.85;;;;;;;19.81;nan;99256.41;5018973;28;20026;-71
2023/08/06 09:09:59;;;;;;;11.85;9.95;;;;;;;19.70;nan;99238.00;5019833;28;20034;-72
2023/08/06 09:12:26;;;;;;;13.50;10.70;;;;;;;19.96;nan;99261.25;5018533;28;20025;-71
2023/08/06 09:14:52;;;;;;;15.95;10.80;;;;;;;19.98;nan;99254.50;5018773;28;20018;-72
2023/08/06 09:17:19;;;;;;;13.75;10.30;;;;;;;20.05;nan;99256.69;5016808;28;20057;-72
2023/08/06 09:19:46;;;;;;;13.90;10.38;;;;;;;20.13;nan;99255.91;5017576;28;20040;-69
2023/08/06 09:22:13;;;;;;;13.85;10.85;;;;;;;20.18;nan;99252.28;5017350;28;20678;-71
2023/08/06 09:24:40;;;;;;;13.25;10.23;;;;;;;20.17;nan;99232.00;5017868;28;20048;-72
2023/08/06 09:27:11;;;;;;;16.55;11.90;;;;;;;20.29;nan;99231.34;5015666;28;20103;-72
2023/08/06 09:29:40;;;;;;;15.65;11.63;;;;;;;20.44;nan;99232.72;5016841;28;20040;-71
2023/08/06 09:32:06;;;;;;;17.17;10.98;;;;;;;20.44;nan;99230.06;5023486;28;20041;-69
2023/08/06 09:34:31;;;;;;;15.02;11.43;;;;;;;20.62;nan;99230.84;5017083;28;20030;-68
2023/08/06 09:36:56;;;;;;;16.17;11.13;;;;;;;20.72;nan;99233.16;5019514;28;20037;-69
2023/08/06 09:39:27;;;;;;;14.38;11.60;;;;;;;20.82;nan;99230.09;5014896;28;20188;-69
2023/08/06 09:41:58;;;;;;;16.70;12.85;;;;;;;20.89;nan;99217.00;5015375;28;20064;-69
2023/08/06 09:44:25;;;;;;;14.75;11.55;;;;;;;20.97;nan;99216.19;5025134;28;20439;-72
2023/08/06 09:46:56;;;;;;;13.10;10.85;;;;;;;21.07;nan;99225.75;5014569;28;20116;-73
2023/08/06 09:49:36;;;;;;;14.40;11.05;;;;;;;21.20;nan;99227.38;5020178;28;20033;-72
2023/08/06 09:52:02;;;;;;;14.43;10.65;;;;;;;21.31;nan;99221.66;5016362;28;20036;-73
2023/08/06 09:54:30;;;;;;;13.40;9.73;;;;;;;21.39;nan;99218.94;5023563;28;20025;-72
2023/08/06 09:56:56;;;;;;;12.07;10.52;;;;;;;21.47;nan;99219.22;5029733;28;20484;-74
2023/08/06 09:59:25;;;;;;;12.07;9.88;;;;;;;21.47;nan;99221.91;5029725;28;20035;-73
2023/08/06 10:01:51;;;;;;;12.23;9.50;;;;;;;21.45;nan;99222.22;5020117;28;22048;-72
2023/08/06 10:04:17;;;;;;;12.10;9.65;;;;;;;21.41;nan;99224.78;5023305;28;20065;-71
2023/08/06 10:06:47;;;;;;;11.90;10.20;;;;;;;21.40;nan;99227.75;5027064;28;20032;-73
2023/08/06 10:09:13;;;;;;;10.75;9.48;;;;;;;21.37;nan;99215.78;5028046;28;20552;-73
2023/08/06 10:11:39;;;;;;;14.02;9.60;;;;;;;21.48;nan;99226.94;5028594;28;20033;-71
2023/08/06 10:14:13;;;;;;;10.23;8.60;;;;;;;21.54;nan;99227.50;5025018;28;20449;-69
2023/08/06 10:16:40;;;;;;;14.27;8.85;;;;;;;21.63;nan;99229.00;5025526;28;20034;-69
2023/08/06 10:19:08;;;;;;;10.80;9.40;;;;;;;21.59;nan;99217.38;5026238;28;20041;-71
2023/08/06 10:21:34;;;;;;;10.10;8.98;;;;;;;21.67;nan;99221.91;5024736;28;20037;-72
2023/08/06 10:24:01;;;;;;;10.75;8.70;;;;;;;21.59;nan;99205.88;5019671;28;20028;-71
2023/08/06 10:26:27;;;;;;;9.48;8.48;;;;;;;21.73;nan;99227.06;5020452;28;20040;-69
2023/08/06 10:28:53;;;;;;;10.40;9.02;;;;;;;21.72;nan;99218.25;5017856;28;20044;-73
2023/08/06 10:31:18;;;;;;;10.48;8.75;;;;;;;21.74;nan;99223.25;5020511;28;20473;-72
2023/08/06 10:33:48;;;;;;;12.38;9.25;;;;;;;21.60;nan;99231.56;5018036;28;20030;-73
2023/08/06 10:36:13;;;;;;;;;;;;;;;21.50;nan;99238.09;5016921;28;20029;-66
2023/08/06 10:38:46;;;;;;;10.93;8.40;;;;;;;21.35;nan;99230.59;5015898;28;19917;-63
2023/08/06 10:41:29;;;;;;;9.15;6.63;;;;;;;21.32;nan;99228.59;5015944;28;20033;-66
2023/08/06 10:44:10;;;;;;;8.52;7.13;;;;;;;21.25;nan;99221.84;5018083;28;20020;-63
2023/08/06 10:46:36;;;;;;;8.45;7.55;;;;;;;21.22;nan;99219.81;5014906;28;20025;-63
2023/08/06 10:49:03;;;;;;;6.82;6.20;;;;;;;21.21;nan;99230.84;5017368;28;20025;-66
2023/08/06 10:51:28;;;;;;;7.68;6.57;;;;;;;21.19;nan;99230.38;5019075;28;20033;-70
2023/08/06 10:53:54;;;;;;;7.90;7.10;;;;;;;21.14;nan;99218.00;5017250;28;20026;-63
2023/08/06 10:56:25;;;;;;;8.43;7.15;;;;;;;21.22;nan;99235.88;5014479;28;20026;-70
2023/08/06 10:58:53;;;;;;;6.43;5.80;;;;;;;21.29;nan;99235.38;5017953;28;20076;-72
2023/08/06 11:01:19;;;;;;;8.20;5.38;;;;;;;21.31;nan;99232.34;5016466;28;20542;-71
2023/08/06 11:03:46;;;;;;;4.78;4.38;;;;;;;21.39;nan;99220.81;5007048;28;20025;-70
2023/08/06 11:06:19;;;;;;;5.35;4.85;;;;;;;21.44;nan;99224.09;5013365;28;20049;-72
2023/08/06 11:08:50;;;;;;;5.38;4.88;;;;;;;21.47;nan;99211.19;5030837;28;20061;-72
2023/08/06 11:11:17;;;;;;;6.45;4.85;;;;;;;21.49;nan;99217.00;5016243;28;20476;-69
2023/08/06 11:13:49;;;;;;;5.05;3.75;;;;;;;21.52;nan;99221.69;5017152;28;20029;-72
2023/08/06 11:16:21;;;;;;;6.03;3.75;;;;;;;21.49;nan;99215.09;5014488;28;20033;-72
2023/08/06 11:18:47;;;;;;;3.67;2.90;;;;;;;21.53;nan;99224.06;5019878;28;20044;-72
2023/08/06 11:21:13;;;;;;;4.15;3.05;;;;;;;21.53;nan;99234.78;5013457;28;20029;-71
2023/08/06 11:23:39;;;;;;;4.60;2.88;;;;;;;21.54;nan;99222.94;5015615;28;20037;-73
2023/08/06 11:26:05;;;;;;;3.55;2.72;;;;;;;21.55;nan;99227.19;5014062;28;20025;-72
2023/08/06 11:28:30;;;;;;;2.47;2.22;;;;;;;21.64;nan;99224.44;5002576;28;20120;-72
2023/08/06 11:30:56;;;;;;;3.28;2.92;;;;;;;21.67;nan;99213.09;5016052;28;20112;-68
2023/08/06 11:33:25;;;;;;;3.25;2.95;;;;;;;21.71;nan;99213.97;5018217;28;20069;-68
2023/08/06 11:35:51;;;;;;;3.33;2.70;;;;;;;21.80;nan;99211.22;5016043;28;20042;-68
2023/08/06 11:38:18;;;;;;;3.65;2.97;;;;;;;21.92;nan;99213.97;5014171;28;20808;-70
2023/08/06 11:40:50;;;;;;;4.25;2.70;;;;;;;22.02;nan;99210.84;5015595;28;20407;-70
2023/08/06 11:43:16;;;;;;;4.53;2.95;;;;;;;22.12;nan;99204.28;5016780;28;20029;-69
2023/08/06 11:45:41;;;;;;;2.78;2.08;;;;;;;22.25;nan;99202.47;5016661;28;20075;-69